Stock, United Kingdom
Current Conditions -  °F | °C
As of 4:20 PM on Tuesday 21 Oct 2014 (Local Time) from EGMC Reporting Station
Rain Showers Rain Showers  
Wind Chill: 54°   Ceiling: Unl
Heat Index: 54°   Visibility: 6mi
Dew Point: 39°   Wind: 14mph
Humidity: 58%   Direction: 290°WNW
Pressure: 29.74"   Gusts: NA
Location:  51.66°N, 0.44°E
Report Text: EGMC 211520Z 29012KT 9999 VCSH FEW010 FEW027CB 12/04 Q1007
Loading
Personal Weather Stations






























Interactive Weather Map
Tropical Storm Tracking
New forecast layout! Learn more

10-Day Weather Forecast

Advertisements
Track Severe Weather on mobile